sensor_id;sensor_type;location;lat;lon;timestamp;P1;durP1;ratioP1;P2;durP2;ratioP2
56073;SDS011;41950;55.840;37.442;2023-03-09T00:02:07;3.22;;;2.00;;
56073;SDS011;41950;55.840;37.442;2023-03-09T00:04:34;3.60;;;1.98;;
56073;SDS011;41950;55.840;37.442;2023-03-09T00:07:01;3.75;;;1.80;;
56073;SDS011;41950;55.840;37.442;2023-03-09T00:09:26;3.20;;;1.63;;
56073;SDS011;41950;55.840;37.442;2023-03-09T00:11:52;4.70;;;2.13;;
56073;SDS011;41950;55.840;37.442;2023-03-09T00:14:18;3.72;;;1.60;;
56073;SDS011;41950;55.840;37.442;2023-03-09T00:16:49;4.07;;;1.90;;
56073;SDS011;41950;55.840;37.442;2023-03-09T00:19:15;3.72;;;2.20;;
56073;SDS011;41950;55.840;37.442;2023-03-09T00:21:46;3.13;;;1.67;;
56073;SDS011;41950;55.840;37.442;2023-03-09T00:24:17;3.92;;;2.13;;
56073;SDS011;41950;55.840;37.442;2023-03-09T00:26:51;3.70;;;2.03;;
56073;SDS011;41950;55.840;37.442;2023-03-09T00:29:22;2.60;;;1.40;;
56073;SDS011;41950;55.840;37.442;2023-03-09T00:31:49;3.67;;;1.88;;
56073;SDS011;41950;55.840;37.442;2023-03-09T00:34:15;3.47;;;2.03;;
56073;SDS011;41950;55.840;37.442;2023-03-09T00:36:41;4.15;;;2.10;;
56073;SDS011;41950;55.840;37.442;2023-03-09T00:39:07;3.45;;;1.60;;
56073;SDS011;41950;55.840;37.442;2023-03-09T00:41:34;3.88;;;2.08;;
56073;SDS011;41950;55.840;37.442;2023-03-09T00:44:00;4.13;;;1.80;;
56073;SDS011;41950;55.840;37.442;2023-03-09T00:46:27;3.42;;;1.90;;
56073;SDS011;41950;55.840;37.442;2023-03-09T00:48:54;3.13;;;1.95;;
56073;SDS011;41950;55.840;37.442;2023-03-09T00:51:19;4.13;;;2.20;;
56073;SDS011;41950;55.840;37.442;2023-03-09T00:53:45;3.67;;;1.95;;
56073;SDS011;41950;55.840;37.442;2023-03-09T00:56:16;1.40;;;0.88;;
56073;SDS011;41950;55.840;37.442;2023-03-09T00:58:43;3.05;;;1.77;;
56073;SDS011;41950;55.840;37.442;2023-03-09T01:01:10;3.55;;;1.70;;
56073;SDS011;41950;55.840;37.442;2023-03-09T01:03:37;3.95;;;2.40;;
56073;SDS011;41950;55.840;37.442;2023-03-09T01:06:03;3.33;;;2.08;;
56073;SDS011;41950;55.840;37.442;2023-03-09T01:08:29;3.92;;;1.95;;
56073;SDS011;41950;55.840;37.442;2023-03-09T01:10:55;4.38;;;2.40;;
56073;SDS011;41950;55.840;37.442;2023-03-09T01:13:21;4.10;;;2.10;;
56073;SDS011;41950;55.840;37.442;2023-03-09T01:15:47;4.13;;;2.15;;
56073;SDS011;41950;55.840;37.442;2023-03-09T01:18:13;3.65;;;2.28;;
56073;SDS011;41950;55.840;37.442;2023-03-09T01:20:39;4.63;;;1.65;;
56073;SDS011;41950;55.840;37.442;2023-03-09T01:23:04;3.25;;;1.88;;
56073;SDS011;41950;55.840;37.442;2023-03-09T01:25:30;3.33;;;1.90;;
56073;SDS011;41950;55.840;37.442;2023-03-09T01:27:56;3.35;;;1.83;;
56073;SDS011;41950;55.840;37.442;2023-03-09T01:30:21;3.13;;;1.63;;
56073;SDS011;41950;55.840;37.442;2023-03-09T01:32:47;3.47;;;1.85;;
56073;SDS011;41950;55.840;37.442;2023-03-09T01:35:13;3.50;;;2.00;;
56073;SDS011;41950;55.840;37.442;2023-03-09T01:37:39;4.10;;;2.17;;
56073;SDS011;41950;55.840;37.442;2023-03-09T01:40:04;4.30;;;2.30;;
56073;SDS011;41950;55.840;37.442;2023-03-09T01:42:33;3.78;;;2.05;;
56073;SDS011;41950;55.840;37.442;2023-03-09T01:46:10;2.38;;;1.23;;
56073;SDS011;41950;55.840;37.442;2023-03-09T01:47:56;4.07;;;2.63;;
56073;SDS011;41950;55.840;37.442;2023-03-09T01:50:28;4.82;;;2.47;;
56073;SDS011;41950;55.840;37.442;2023-03-09T01:52:57;4.47;;;2.45;;
56073;SDS011;41950;55.840;37.442;2023-03-09T01:55:38;4.73;;;2.37;;
56073;SDS011;41950;55.840;37.442;2023-03-09T01:58:15;4.30;;;2.42;;
56073;SDS011;41950;55.840;37.442;2023-03-09T02:00:44;3.92;;;2.22;;
56073;SDS011;41950;55.840;37.442;2023-03-09T02:03:17;3.15;;;1.77;;
56073;SDS011;41950;55.840;37.442;2023-03-09T02:08:18;3.97;;;2.05;;
56073;SDS011;41950;55.840;37.442;2023-03-09T02:10:48;3.55;;;1.98;;
56073;SDS011;41950;55.840;37.442;2023-03-09T02:13:21;3.60;;;2.15;;
56073;SDS011;41950;55.840;37.442;2023-03-09T02:15:55;3.75;;;1.92;;
56073;SDS011;41950;55.840;37.442;2023-03-09T02:18:22;3.92;;;2.13;;
56073;SDS011;41950;55.840;37.442;2023-03-09T02:23:36;2.80;;;1.23;;
56073;SDS011;41950;55.840;37.442;2023-03-09T02:28:40;3.88;;;2.17;;
56073;SDS011;41950;55.840;37.442;2023-03-09T02:31:06;3.83;;;2.15;;
56073;SDS011;41950;55.840;37.442;2023-03-09T02:33:32;2.63;;;1.55;;
56073;SDS011;41950;55.840;37.442;2023-03-09T02:35:59;3.72;;;2.25;;
56073;SDS011;41950;55.840;37.442;2023-03-09T02:38:26;4.10;;;2.35;;
56073;SDS011;41950;55.840;37.442;2023-03-09T02:40:52;3.65;;;2.22;;
56073;SDS011;41950;55.840;37.442;2023-03-09T02:43:24;4.32;;;2.33;;
56073;SDS011;41950;55.840;37.442;2023-03-09T02:45:54;4.00;;;2.13;;
56073;SDS011;41950;55.840;37.442;2023-03-09T02:48:19;4.55;;;2.10;;
56073;SDS011;41950;55.840;37.442;2023-03-09T02:50:45;2.47;;;1.20;;
56073;SDS011;41950;55.840;37.442;2023-03-09T02:53:11;3.88;;;2.10;;
56073;SDS011;41950;55.840;37.442;2023-03-09T02:55:36;4.50;;;2.00;;
56073;SDS011;41950;55.840;37.442;2023-03-09T02:58:02;4.70;;;2.78;;
56073;SDS011;41950;55.840;37.442;2023-03-09T03:00:28;4.47;;;2.03;;
56073;SDS011;41950;55.840;37.442;2023-03-09T03:02:53;2.92;;;1.70;;
56073;SDS011;41950;55.840;37.442;2023-03-09T03:05:19;3.03;;;2.10;;
56073;SDS011;41950;55.840;37.442;2023-03-09T03:07:46;3.78;;;2.25;;
56073;SDS011;41950;55.840;37.442;2023-03-09T03:10:12;3.42;;;1.50;;
56073;SDS011;41950;55.840;37.442;2023-03-09T03:12:38;3.83;;;2.20;;
56073;SDS011;41950;55.840;37.442;2023-03-09T03:15:04;3.58;;;2.00;;
56073;SDS011;41950;55.840;37.442;2023-03-09T03:17:30;3.63;;;1.90;;
56073;SDS011;41950;55.840;37.442;2023-03-09T03:19:56;3.33;;;1.63;;
56073;SDS011;41950;55.840;37.442;2023-03-09T03:22:22;4.00;;;2.00;;
56073;SDS011;41950;55.840;37.442;2023-03-09T03:24:48;3.28;;;2.00;;
56073;SDS011;41950;55.840;37.442;2023-03-09T03:27:14;3.25;;;1.45;;
56073;SDS011;41950;55.840;37.442;2023-03-09T03:29:40;4.03;;;1.65;;
56073;SDS011;41950;55.840;37.442;2023-03-09T03:32:06;3.88;;;1.88;;
56073;SDS011;41950;55.840;37.442;2023-03-09T03:34:32;3.75;;;2.10;;
56073;SDS011;41950;55.840;37.442;2023-03-09T03:36:58;2.92;;;1.60;;
56073;SDS011;41950;55.840;37.442;2023-03-09T03:39:24;3.72;;;1.77;;
56073;SDS011;41950;55.840;37.442;2023-03-09T03:41:50;2.67;;;1.33;;
56073;SDS011;41950;55.840;37.442;2023-03-09T03:44:16;4.40;;;1.90;;
56073;SDS011;41950;55.840;37.442;2023-03-09T03:46:42;3.88;;;1.90;;
56073;SDS011;41950;55.840;37.442;2023-03-09T03:49:08;4.65;;;1.70;;
56073;SDS011;41950;55.840;37.442;2023-03-09T03:51:33;4.30;;;1.65;;
56073;SDS011;41950;55.840;37.442;2023-03-09T03:53:59;4.15;;;1.60;;
56073;SDS011;41950;55.840;37.442;2023-03-09T03:56:25;4.25;;;1.85;;
56073;SDS011;41950;55.840;37.442;2023-03-09T03:58:50;3.78;;;2.10;;
56073;SDS011;41950;55.840;37.442;2023-03-09T04:01:16;3.28;;;1.30;;
56073;SDS011;41950;55.840;37.442;2023-03-09T04:03:42;4.05;;;2.05;;
56073;SDS011;41950;55.840;37.442;2023-03-09T04:06:07;4.88;;;2.03;;
56073;SDS011;41950;55.840;37.442;2023-03-09T04:08:33;3.22;;;1.70;;
56073;SDS011;41950;55.840;37.442;2023-03-09T04:11:03;4.57;;;2.00;;
56073;SDS011;41950;55.840;37.442;2023-03-09T04:13:30;2.83;;;1.55;;
56073;SDS011;41950;55.840;37.442;2023-03-09T04:15:56;2.90;;;1.70;;
56073;SDS011;41950;55.840;37.442;2023-03-09T04:18:21;3.53;;;1.80;;
56073;SDS011;41950;55.840;37.442;2023-03-09T04:20:47;3.88;;;1.88;;
56073;SDS011;41950;55.840;37.442;2023-03-09T04:23:12;4.80;;;1.70;;
56073;SDS011;41950;55.840;37.442;2023-03-09T04:25:38;2.78;;;1.60;;
56073;SDS011;41950;55.840;37.442;2023-03-09T04:28:04;3.63;;;1.90;;
56073;SDS011;41950;55.840;37.442;2023-03-09T04:30:30;3.38;;;1.50;;
56073;SDS011;41950;55.840;37.442;2023-03-09T04:32:56;3.28;;;1.85;;
56073;SDS011;41950;55.840;37.442;2023-03-09T04:35:21;2.72;;;1.17;;
56073;SDS011;41950;55.840;37.442;2023-03-09T04:37:47;4.57;;;2.10;;
56073;SDS011;41950;55.840;37.442;2023-03-09T04:40:13;2.88;;;1.50;;
56073;SDS011;41950;55.840;37.442;2023-03-09T04:42:39;4.18;;;1.77;;
56073;SDS011;41950;55.840;37.442;2023-03-09T04:45:05;3.72;;;1.75;;
56073;SDS011;41950;55.840;37.442;2023-03-09T04:47:31;3.45;;;1.90;;
56073;SDS011;41950;55.840;37.442;2023-03-09T04:49:57;5.63;;;1.95;;
56073;SDS011;41950;55.840;37.442;2023-03-09T04:52:24;3.78;;;2.10;;
56073;SDS011;41950;55.840;37.442;2023-03-09T04:54:50;2.88;;;1.70;;
56073;SDS011;41950;55.840;37.442;2023-03-09T04:57:15;4.40;;;2.05;;
56073;SDS011;41950;55.840;37.442;2023-03-09T04:59:42;3.22;;;1.80;;
56073;SDS011;41950;55.840;37.442;2023-03-09T05:02:08;4.13;;;2.05;;
56073;SDS011;41950;55.840;37.442;2023-03-09T05:04:33;4.57;;;1.70;;
56073;SDS011;41950;55.840;37.442;2023-03-09T05:07:01;3.92;;;2.20;;
56073;SDS011;41950;55.840;37.442;2023-03-09T05:09:27;4.53;;;1.88;;
56073;SDS011;41950;55.840;37.442;2023-03-09T05:11:53;2.95;;;1.17;;
56073;SDS011;41950;55.840;37.442;2023-03-09T05:14:19;3.08;;;1.60;;
56073;SDS011;41950;55.840;37.442;2023-03-09T05:16:45;2.95;;;1.38;;
56073;SDS011;41950;55.840;37.442;2023-03-09T05:19:13;3.20;;;1.80;;
56073;SDS011;41950;55.840;37.442;2023-03-09T05:21:39;3.03;;;1.80;;
56073;SDS011;41950;55.840;37.442;2023-03-09T05:24:05;3.72;;;1.65;;
56073;SDS011;41950;55.840;37.442;2023-03-09T05:26:31;3.35;;;1.60;;
56073;SDS011;41950;55.840;37.442;2023-03-09T05:28:56;3.92;;;1.67;;
56073;SDS011;41950;55.840;37.442;2023-03-09T05:31:22;2.53;;;1.42;;
56073;SDS011;41950;55.840;37.442;2023-03-09T05:33:48;3.05;;;1.60;;
56073;SDS011;41950;55.840;37.442;2023-03-09T05:36:18;1.98;;;1.02;;
56073;SDS011;41950;55.840;37.442;2023-03-09T05:38:45;2.70;;;1.60;;
56073;SDS011;41950;55.840;37.442;2023-03-09T05:41:11;3.08;;;1.75;;
56073;SDS011;41950;55.840;37.442;2023-03-09T05:43:37;3.13;;;1.83;;
56073;SDS011;41950;55.840;37.442;2023-03-09T05:46:07;3.15;;;1.40;;
56073;SDS011;41950;55.840;37.442;2023-03-09T05:48:35;3.63;;;1.80;;
56073;SDS011;41950;55.840;37.442;2023-03-09T05:51:01;1.92;;;1.13;;
56073;SDS011;41950;55.840;37.442;2023-03-09T05:53:28;3.28;;;1.60;;
56073;SDS011;41950;55.840;37.442;2023-03-09T05:55:55;3.80;;;1.80;;
56073;SDS011;41950;55.840;37.442;2023-03-09T05:58:21;1.67;;;0.98;;
56073;SDS011;41950;55.840;37.442;2023-03-09T06:00:47;2.78;;;1.30;;
56073;SDS011;41950;55.840;37.442;2023-03-09T06:03:13;2.38;;;1.33;;
56073;SDS011;41950;55.840;37.442;2023-03-09T06:05:39;2.20;;;1.27;;
56073;SDS011;41950;55.840;37.442;2023-03-09T06:08:04;3.63;;;1.45;;
56073;SDS011;41950;55.840;37.442;2023-03-09T06:10:30;2.00;;;1.10;;
56073;SDS011;41950;55.840;37.442;2023-03-09T06:12:56;4.35;;;1.88;;
56073;SDS011;41950;55.840;37.442;2023-03-09T06:15:22;3.45;;;1.20;;
56073;SDS011;41950;55.840;37.442;2023-03-09T06:17:47;3.47;;;1.25;;
56073;SDS011;41950;55.840;37.442;2023-03-09T06:20:14;2.85;;;1.15;;
56073;SDS011;41950;55.840;37.442;2023-03-09T06:22:40;1.50;;;1.02;;
56073;SDS011;41950;55.840;37.442;2023-03-09T06:25:10;2.83;;;1.42;;
56073;SDS011;41950;55.840;37.442;2023-03-09T06:27:36;2.92;;;1.50;;
56073;SDS011;41950;55.840;37.442;2023-03-09T06:30:03;2.35;;;1.20;;
56073;SDS011;41950;55.840;37.442;2023-03-09T06:32:32;2.88;;;1.50;;
56073;SDS011;41950;55.840;37.442;2023-03-09T06:34:59;3.25;;;1.48;;
56073;SDS011;41950;55.840;37.442;2023-03-09T06:37:25;3.35;;;1.20;;
56073;SDS011;41950;55.840;37.442;2023-03-09T06:39:50;4.70;;;1.63;;
56073;SDS011;41950;55.840;37.442;2023-03-09T06:42:16;3.38;;;1.67;;
56073;SDS011;41950;55.840;37.442;2023-03-09T06:44:42;3.33;;;1.48;;
56073;SDS011;41950;55.840;37.442;2023-03-09T06:47:08;2.92;;;1.60;;
56073;SDS011;41950;55.840;37.442;2023-03-09T06:49:34;3.00;;;1.25;;
56073;SDS011;41950;55.840;37.442;2023-03-09T06:52:00;4.10;;;1.33;;
56073;SDS011;41950;55.840;37.442;2023-03-09T06:54:26;3.45;;;1.45;;
56073;SDS011;41950;55.840;37.442;2023-03-09T06:56:52;1.20;;;0.88;;
56073;SDS011;41950;55.840;37.442;2023-03-09T06:59:18;2.70;;;1.40;;
56073;SDS011;41950;55.840;37.442;2023-03-09T07:01:44;2.78;;;1.30;;
56073;SDS011;41950;55.840;37.442;2023-03-09T07:04:11;2.80;;;1.15;;
56073;SDS011;41950;55.840;37.442;2023-03-09T07:06:37;3.25;;;1.45;;
56073;SDS011;41950;55.840;37.442;2023-03-09T07:09:03;2.80;;;1.45;;
56073;SDS011;41950;55.840;37.442;2023-03-09T07:11:29;3.67;;;1.83;;
56073;SDS011;41950;55.840;37.442;2023-03-09T07:13:55;3.47;;;1.50;;
56073;SDS011;41950;55.840;37.442;2023-03-09T07:16:21;3.10;;;1.30;;
56073;SDS011;41950;55.840;37.442;2023-03-09T07:18:47;2.08;;;0.93;;
56073;SDS011;41950;55.840;37.442;2023-03-09T07:21:16;4.18;;;1.65;;
56073;SDS011;41950;55.840;37.442;2023-03-09T07:23:41;3.67;;;1.33;;
56073;SDS011;41950;55.840;37.442;2023-03-09T07:26:07;2.53;;;1.02;;
56073;SDS011;41950;55.840;37.442;2023-03-09T07:28:33;2.85;;;1.42;;
56073;SDS011;41950;55.840;37.442;2023-03-09T07:31:05;3.67;;;1.48;;
56073;SDS011;41950;55.840;37.442;2023-03-09T07:33:32;1.73;;;0.90;;
56073;SDS011;41950;55.840;37.442;2023-03-09T07:35:58;1.80;;;0.88;;
56073;SDS011;41950;55.840;37.442;2023-03-09T07:38:23;2.00;;;0.90;;
56073;SDS011;41950;55.840;37.442;2023-03-09T07:40:49;2.38;;;1.35;;
56073;SDS011;41950;55.840;37.442;2023-03-09T07:43:15;1.83;;;0.95;;
56073;SDS011;41950;55.840;37.442;2023-03-09T07:45:40;2.95;;;1.35;;
56073;SDS011;41950;55.840;37.442;2023-03-09T07:48:06;3.42;;;1.38;;
56073;SDS011;41950;55.840;37.442;2023-03-09T07:50:33;4.28;;;1.30;;
56073;SDS011;41950;55.840;37.442;2023-03-09T07:52:58;3.67;;;1.30;;
56073;SDS011;41950;55.840;37.442;2023-03-09T07:55:24;3.63;;;1.42;;
56073;SDS011;41950;55.840;37.442;2023-03-09T07:57:50;3.50;;;1.60;;
56073;SDS011;41950;55.840;37.442;2023-03-09T08:00:15;2.47;;;1.20;;
56073;SDS011;41950;55.840;37.442;2023-03-09T08:02:46;2.80;;;1.20;;
56073;SDS011;41950;55.840;37.442;2023-03-09T08:05:12;4.43;;;1.30;;
56073;SDS011;41950;55.840;37.442;2023-03-09T08:07:38;3.72;;;1.35;;
56073;SDS011;41950;55.840;37.442;2023-03-09T08:10:07;1.98;;;1.20;;
56073;SDS011;41950;55.840;37.442;2023-03-09T08:12:34;2.60;;;1.13;;
56073;SDS011;41950;55.840;37.442;2023-03-09T08:15:00;1.92;;;0.90;;
56073;SDS011;41950;55.840;37.442;2023-03-09T08:17:26;2.50;;;1.20;;
56073;SDS011;41950;55.840;37.442;2023-03-09T08:19:53;2.08;;;1.00;;
56073;SDS011;41950;55.840;37.442;2023-03-09T08:22:19;2.60;;;1.30;;
56073;SDS011;41950;55.840;37.442;2023-03-09T08:24:45;4.25;;;1.30;;
56073;SDS011;41950;55.840;37.442;2023-03-09T08:27:11;4.25;;;1.40;;
56073;SDS011;41950;55.840;37.442;2023-03-09T08:29:37;2.95;;;1.30;;
56073;SDS011;41950;55.840;37.442;2023-03-09T08:32:09;3.05;;;1.40;;
56073;SDS011;41950;55.840;37.442;2023-03-09T08:34:35;2.75;;;1.33;;
56073;SDS011;41950;55.840;37.442;2023-03-09T08:37:02;3.13;;;1.58;;
56073;SDS011;41950;55.840;37.442;2023-03-09T08:39:28;3.38;;;1.48;;
56073;SDS011;41950;55.840;37.442;2023-03-09T08:41:54;3.63;;;1.35;;
56073;SDS011;41950;55.840;37.442;2023-03-09T08:44:19;3.10;;;1.50;;
56073;SDS011;41950;55.840;37.442;2023-03-09T08:46:45;1.65;;;1.10;;
56073;SDS011;41950;55.840;37.442;2023-03-09T08:49:11;3.63;;;1.20;;
56073;SDS011;41950;55.840;37.442;2023-03-09T08:51:36;3.10;;;1.20;;
56073;SDS011;41950;55.840;37.442;2023-03-09T08:54:02;2.85;;;1.20;;
56073;SDS011;41950;55.840;37.442;2023-03-09T08:56:28;2.67;;;1.10;;
56073;SDS011;41950;55.840;37.442;2023-03-09T08:58:53;2.90;;;0.98;;
56073;SDS011;41950;55.840;37.442;2023-03-09T09:01:19;2.53;;;1.20;;
56073;SDS011;41950;55.840;37.442;2023-03-09T09:03:45;2.70;;;0.95;;
56073;SDS011;41950;55.840;37.442;2023-03-09T09:06:11;3.20;;;0.85;;
56073;SDS011;41950;55.840;37.442;2023-03-09T09:08:39;11.52;;;1.95;;
56073;SDS011;41950;55.840;37.442;2023-03-09T09:11:08;2.97;;;1.30;;
56073;SDS011;41950;55.840;37.442;2023-03-09T09:13:35;3.38;;;1.17;;
56073;SDS011;41950;55.840;37.442;2023-03-09T09:16:05;3.65;;;1.80;;
56073;SDS011;41950;55.840;37.442;2023-03-09T09:18:32;1.40;;;0.88;;
56073;SDS011;41950;55.840;37.442;2023-03-09T09:21:02;3.40;;;1.20;;
56073;SDS011;41950;55.840;37.442;2023-03-09T09:23:39;2.05;;;1.00;;
56073;SDS011;41950;55.840;37.442;2023-03-09T09:26:06;2.78;;;1.00;;
56073;SDS011;41950;55.840;37.442;2023-03-09T09:28:33;2.53;;;1.05;;
56073;SDS011;41950;55.840;37.442;2023-03-09T09:31:01;4.53;;;1.27;;
56073;SDS011;41950;55.840;37.442;2023-03-09T09:33:29;3.70;;;1.40;;
56073;SDS011;41950;55.840;37.442;2023-03-09T09:35:57;2.05;;;0.77;;
56073;SDS011;41950;55.840;37.442;2023-03-09T09:38:36;1.70;;;0.88;;
56073;SDS011;41950;55.840;37.442;2023-03-09T09:41:07;4.05;;;1.48;;
56073;SDS011;41950;55.840;37.442;2023-03-09T09:43:40;3.35;;;0.93;;
56073;SDS011;41950;55.840;37.442;2023-03-09T09:46:09;3.60;;;1.42;;
56073;SDS011;41950;55.840;37.442;2023-03-09T09:48:38;2.63;;;1.20;;
56073;SDS011;41950;55.840;37.442;2023-03-09T09:51:13;2.08;;;0.93;;
56073;SDS011;41950;55.840;37.442;2023-03-09T09:56:55;2.72;;;1.10;;
56073;SDS011;41950;55.840;37.442;2023-03-09T09:59:37;2.58;;;1.10;;
56073;SDS011;41950;55.840;37.442;2023-03-09T10:07:14;2.97;;;0.90;;
56073;SDS011;41950;55.840;37.442;2023-03-09T10:09:42;2.95;;;1.10;;
56073;SDS011;41950;55.840;37.442;2023-03-09T10:12:12;1.80;;;0.95;;
56073;SDS011;41950;55.840;37.442;2023-03-09T10:17:39;3.28;;;1.42;;
56073;SDS011;41950;55.840;37.442;2023-03-09T10:22:44;3.08;;;1.10;;
56073;SDS011;41950;55.840;37.442;2023-03-09T10:25:13;2.55;;;1.10;;
56073;SDS011;41950;55.840;37.442;2023-03-09T10:27:42;3.05;;;1.25;;
56073;SDS011;41950;55.840;37.442;2023-03-09T10:33:09;2.22;;;1.08;;
56073;SDS011;41950;55.840;37.442;2023-03-09T10:35:40;3.90;;;1.10;;
56073;SDS011;41950;55.840;37.442;2023-03-09T10:38:12;4.60;;;1.38;;
56073;SDS011;41950;55.840;37.442;2023-03-09T10:40:43;2.97;;;1.48;;
56073;SDS011;41950;55.840;37.442;2023-03-09T10:43:22;3.28;;;1.20;;
56073;SDS011;41950;55.840;37.442;2023-03-09T10:46:11;1.80;;;0.80;;
56073;SDS011;41950;55.840;37.442;2023-03-09T10:48:49;2.72;;;1.17;;
56073;SDS011;41950;55.840;37.442;2023-03-09T10:51:37;3.22;;;1.00;;
56073;SDS011;41950;55.840;37.442;2023-03-09T10:56:52;3.45;;;1.20;;
56073;SDS011;41950;55.840;37.442;2023-03-09T10:59:22;3.67;;;1.35;;
56073;SDS011;41950;55.840;37.442;2023-03-09T11:01:49;4.10;;;1.20;;
56073;SDS011;41950;55.840;37.442;2023-03-09T11:04:27;2.30;;;1.10;;
56073;SDS011;41950;55.840;37.442;2023-03-09T11:09:35;5.00;;;1.50;;
56073;SDS011;41950;55.840;37.442;2023-03-09T11:12:25;3.05;;;1.20;;
56073;SDS011;41950;55.840;37.442;2023-03-09T11:15:35;3.60;;;1.30;;
56073;SDS011;41950;55.840;37.442;2023-03-09T11:17:58;4.07;;;1.08;;
56073;SDS011;41950;55.840;37.442;2023-03-09T11:20:32;3.35;;;1.38;;
56073;SDS011;41950;55.840;37.442;2023-03-09T11:28:47;4.38;;;1.95;;
56073;SDS011;41950;55.840;37.442;2023-03-09T11:31:23;4.63;;;1.90;;
56073;SDS011;41950;55.840;37.442;2023-03-09T11:33:54;4.32;;;1.90;;
56073;SDS011;41950;55.840;37.442;2023-03-09T11:36:25;3.80;;;1.42;;
56073;SDS011;41950;55.840;37.442;2023-03-09T11:38:57;3.33;;;1.52;;
56073;SDS011;41950;55.840;37.442;2023-03-09T11:41:32;6.05;;;2.03;;
56073;SDS011;41950;55.840;37.442;2023-03-09T11:44:04;4.53;;;2.40;;
56073;SDS011;41950;55.840;37.442;2023-03-09T11:46:37;4.20;;;1.85;;
56073;SDS011;41950;55.840;37.442;2023-03-09T11:49:07;5.88;;;1.77;;
56073;SDS011;41950;55.840;37.442;2023-03-09T11:51:41;5.10;;;1.95;;
56073;SDS011;41950;55.840;37.442;2023-03-09T11:54:19;5.03;;;2.28;;
56073;SDS011;41950;55.840;37.442;2023-03-09T11:56:46;5.72;;;2.33;;
56073;SDS011;41950;55.840;37.442;2023-03-09T11:59:17;6.13;;;2.35;;
56073;SDS011;41950;55.840;37.442;2023-03-09T12:02:03;5.10;;;2.25;;
56073;SDS011;41950;55.840;37.442;2023-03-09T12:04:45;7.60;;;2.92;;
56073;SDS011;41950;55.840;37.442;2023-03-09T12:07:20;5.75;;;2.33;;
56073;SDS011;41950;55.840;37.442;2023-03-09T12:17:48;6.25;;;2.40;;
56073;SDS011;41950;55.840;37.442;2023-03-09T12:20:24;4.53;;;2.45;;
56073;SDS011;41950;55.840;37.442;2023-03-09T12:26:04;4.00;;;1.95;;
56073;SDS011;41950;55.840;37.442;2023-03-09T12:28:53;5.93;;;2.55;;
56073;SDS011;41950;55.840;37.442;2023-03-09T12:31:42;5.30;;;2.55;;
56073;SDS011;41950;55.840;37.442;2023-03-09T12:36:36;5.55;;;2.28;;
56073;SDS011;41950;55.840;37.442;2023-03-09T12:41:57;8.73;;;2.92;;
56073;SDS011;41950;55.840;37.442;2023-03-09T12:50:03;4.90;;;1.90;;
56073;SDS011;41950;55.840;37.442;2023-03-09T12:55:25;6.05;;;2.00;;
56073;SDS011;41950;55.840;37.442;2023-03-09T13:01:02;5.30;;;2.30;;
56073;SDS011;41950;55.840;37.442;2023-03-09T13:09:02;11.80;;;2.65;;
56073;SDS011;41950;55.840;37.442;2023-03-09T13:11:32;6.05;;;2.30;;
56073;SDS011;41950;55.840;37.442;2023-03-09T13:14:10;7.13;;;2.90;;
56073;SDS011;41950;55.840;37.442;2023-03-09T13:29:52;3.85;;;1.77;;
56073;SDS011;41950;55.840;37.442;2023-03-09T13:32:25;4.45;;;1.88;;
56073;SDS011;41950;55.840;37.442;2023-03-09T13:34:56;5.03;;;1.88;;
56073;SDS011;41950;55.840;37.442;2023-03-09T13:37:29;4.78;;;1.92;;
56073;SDS011;41950;55.840;37.442;2023-03-09T13:39:59;4.60;;;1.90;;
56073;SDS011;41950;55.840;37.442;2023-03-09T13:42:34;4.22;;;1.52;;
56073;SDS011;41950;55.840;37.442;2023-03-09T13:45:03;6.70;;;1.70;;
56073;SDS011;41950;55.840;37.442;2023-03-09T13:47:30;5.82;;;2.22;;
56073;SDS011;41950;55.840;37.442;2023-03-09T13:50:00;5.07;;;1.70;;
56073;SDS011;41950;55.840;37.442;2023-03-09T13:52:27;5.68;;;2.03;;
56073;SDS011;41950;55.840;37.442;2023-03-09T13:57:33;5.32;;;2.03;;
56073;SDS011;41950;55.840;37.442;2023-03-09T14:02:45;5.47;;;2.10;;
56073;SDS011;41950;55.840;37.442;2023-03-09T14:07:43;5.43;;;2.30;;
56073;SDS011;41950;55.840;37.442;2023-03-09T14:12:52;4.47;;;2.10;;
56073;SDS011;41950;55.840;37.442;2023-03-09T14:15:29;5.85;;;1.73;;
56073;SDS011;41950;55.840;37.442;2023-03-09T14:17:56;5.28;;;2.00;;
56073;SDS011;41950;55.840;37.442;2023-03-09T14:20:24;4.72;;;1.80;;
56073;SDS011;41950;55.840;37.442;2023-03-09T14:23:14;5.20;;;1.80;;
56073;SDS011;41950;55.840;37.442;2023-03-09T14:25:59;3.92;;;1.90;;
56073;SDS011;41950;55.840;37.442;2023-03-09T14:28:30;5.90;;;2.40;;
56073;SDS011;41950;55.840;37.442;2023-03-09T14:31:21;3.80;;;2.00;;
56073;SDS011;41950;55.840;37.442;2023-03-09T14:33:54;3.55;;;1.95;;
56073;SDS011;41950;55.840;37.442;2023-03-09T14:36:22;4.22;;;2.13;;
56073;SDS011;41950;55.840;37.442;2023-03-09T14:38:53;8.30;;;2.20;;
56073;SDS011;41950;55.840;37.442;2023-03-09T14:41:20;4.68;;;1.92;;
56073;SDS011;41950;55.840;37.442;2023-03-09T14:43:48;5.80;;;2.22;;
56073;SDS011;41950;55.840;37.442;2023-03-09T14:46:15;3.92;;;1.83;;
56073;SDS011;41950;55.840;37.442;2023-03-09T14:48:46;3.65;;;1.58;;
56073;SDS011;41950;55.840;37.442;2023-03-09T14:51:13;4.43;;;2.03;;
56073;SDS011;41950;55.840;37.442;2023-03-09T14:53:50;4.45;;;2.45;;
56073;SDS011;41950;55.840;37.442;2023-03-09T14:56:17;4.20;;;1.92;;
56073;SDS011;41950;55.840;37.442;2023-03-09T14:58:43;5.13;;;1.63;;
56073;SDS011;41950;55.840;37.442;2023-03-09T15:01:09;4.88;;;2.13;;
56073;SDS011;41950;55.840;37.442;2023-03-09T15:03:34;6.40;;;2.38;;
56073;SDS011;41950;55.840;37.442;2023-03-09T15:06:00;5.03;;;2.15;;
56073;SDS011;41950;55.840;37.442;2023-03-09T15:08:26;6.18;;;1.90;;
56073;SDS011;41950;55.840;37.442;2023-03-09T15:10:51;5.45;;;2.08;;
56073;SDS011;41950;55.840;37.442;2023-03-09T15:13:17;5.55;;;1.80;;
56073;SDS011;41950;55.840;37.442;2023-03-09T15:15:43;6.75;;;2.05;;
56073;SDS011;41950;55.840;37.442;2023-03-09T15:18:11;6.50;;;2.83;;
56073;SDS011;41950;55.840;37.442;2023-03-09T15:20:36;6.03;;;2.20;;
56073;SDS011;41950;55.840;37.442;2023-03-09T15:23:02;5.57;;;2.67;;
56073;SDS011;41950;55.840;37.442;2023-03-09T15:25:30;4.03;;;1.90;;
56073;SDS011;41950;55.840;37.442;2023-03-09T15:27:55;4.65;;;2.42;;
56073;SDS011;41950;55.840;37.442;2023-03-09T15:30:21;4.82;;;1.60;;
56073;SDS011;41950;55.840;37.442;2023-03-09T15:32:47;4.00;;;1.92;;
56073;SDS011;41950;55.840;37.442;2023-03-09T15:35:14;5.82;;;2.30;;
56073;SDS011;41950;55.840;37.442;2023-03-09T15:37:41;4.53;;;1.85;;
56073;SDS011;41950;55.840;37.442;2023-03-09T15:40:11;4.20;;;2.00;;
56073;SDS011;41950;55.840;37.442;2023-03-09T15:42:38;4.57;;;1.77;;
56073;SDS011;41950;55.840;37.442;2023-03-09T15:45:05;6.50;;;2.28;;
56073;SDS011;41950;55.840;37.442;2023-03-09T15:47:32;4.82;;;2.30;;
56073;SDS011;41950;55.840;37.442;2023-03-09T15:49:58;3.58;;;2.20;;
56073;SDS011;41950;55.840;37.442;2023-03-09T15:52:24;5.60;;;2.35;;
56073;SDS011;41950;55.840;37.442;2023-03-09T15:54:50;4.70;;;2.10;;
56073;SDS011;41950;55.840;37.442;2023-03-09T15:57:16;4.18;;;2.28;;
56073;SDS011;41950;55.840;37.442;2023-03-09T15:59:42;4.80;;;2.72;;
56073;SDS011;41950;55.840;37.442;2023-03-09T16:02:09;5.15;;;2.50;;
56073;SDS011;41950;55.840;37.442;2023-03-09T16:04:35;5.15;;;2.70;;
56073;SDS011;41950;55.840;37.442;2023-03-09T16:07:01;6.03;;;2.67;;
56073;SDS011;41950;55.840;37.442;2023-03-09T16:09:27;5.57;;;2.33;;
56073;SDS011;41950;55.840;37.442;2023-03-09T16:11:53;4.03;;;2.05;;
56073;SDS011;41950;55.840;37.442;2023-03-09T16:14:19;5.88;;;2.78;;